Hlavní strana
METAR-TAF:

METAR-TAF

Letiště :

Tampere, Finsko

zeměpisná šířka: 61-25N, zeměpisná délka: 023-35E, výška: 112 m

Aktuální stav počasí

Zpráva byla vytvořena před 26 minutami, v 12:50 UTC
Západní vítr 11 kt, proměnlivý mezi západojihozápadním a severozápadním
Teplota 9°C
Vlhkost vzduchu 66%
Tlak 1018 hPa
Viditelnost 10 km a více
Žádná oblačnost pod 1500 m, nevyskytují se cumulonimby.

METAR: EFTP 191250Z AUTO 28011KT 250V320 CAVOK 09/03 Q1018

Čas: 16:16 (13:16 UTC)

Předpověď počasí

Zpráva byla vytvořena před 1 hodinou a 50 minutami, v 11:26 UTC
Předpověď platná od 19 v 12 UTC do 20 v 12 UTC
Západní vítr 7 kt
Viditelnost 10 km a více
Polojasno ve výšce 2500 ft
Dočasný
od 19 v 22 UTC do 20 v 08 UTC
Viditelnost: 2000 m
Oblačno až skoro zataženo ve výšce 300 ft
kouřmo

TAF: EFTP 191126Z 1912/2012 28007KT 9999 SCT025 TEMPO 1922/2008 2000 BR BKN003

Stav a předpovědi počasí z více než 4 000 letišť (zprávy METAR a TAF).

Červené a žluté tečky na mapě představují dostupné meteorologické stanice.

Když kurzor umístíte na tečku, zobrazí se název stanice.

Pak kliknutím zobrazíte stav a předpověď počasí.

Chcete-li změnit mapu, kliknutím na zelené tlačítko se znaménkem +mapu přiblížíte, kliknutím na zelené tlačítko se znaménkem – mapu oddálíte a kliknutím na zelené šipky přejdete na sousední mapy.


METAR-TAF: